KHLG

Wheeling Ohio Co Airport

Wheeling, West Virginia, USA
METAR KHLG 231453Z 35008KT 10SM BKN009 OVC018 15/12 A3016 RMK AO2 CIG 008V013 SLP213 T01500117 51021
Observed Flight Rules
May-23 @ 14:53 UTC (8 minutes ago) Instrument Flight Rules
Wind Visibility Clouds
350° at 8 knots 10 miles
  • Broken at 900' AGL
  • Overcast at 1,800' AGL
Temperatures Readings
Current 15°C / 59°F
Dewpoint 12°C / 54°F
Humidity 82%
Altimeter 30.16" Hg
Pressure 1021.3 hPa
Elevation 372
METAR KHLG 231453Z 35008KT 10SM BKN009 OVC018 15/12 A3016 RMK AO2 CIG 008V013 SLP213 T01500117 51021
Observed Flight Rules
May-23 @ 14:53 UTC
(8 minutes ago)
IFR
Wind Visibility
350° at 8 knots 10 miles
Clouds
  • Broken at 900' AGL
  • Overcast at 1,800' AGL
Temperature Dewpoint
15°C / 59°F 12°C / 54°F
Humidity Altimeter Pressure
82% 30.16" Hg 1021.3 hPa